Time;durP1;ratioP1;P1;durP2;ratioP2;P2;SDS_P1;SDS_P2;PMS_P1;PMS_P2;Temp;Humidity;BMP_temperature;BMP_pressure;BME280_temperature;BME280_humidity;BME280_pressure;Samples;Min_cycle;Max_cycle;Signal;HPM_P1;HPM_P2
2021/01/02 00:00:53;;;;;;;7.15;2.25;;;25.00;44.90;;;;;;5074600;28;20107;-48
2021/01/02 00:03:45;;;;;;;11.32;2.22;;;25.00;45.00;;;;;;5074069;28;20104;-48
2021/01/02 00:06:27;;;;;;;6.22;2.17;;;25.00;44.90;;;;;;5074892;28;20120;-48
2021/01/02 00:09:03;;;;;;;213.25;147.82;;;24.90;45.00;;;;;;5059209;28;20032;-48
2021/01/02 00:11:54;;;;;;;43.63;23.98;;;24.90;45.00;;;;;;5075148;28;20028;-48
2021/01/02 00:14:52;;;;;;;17.83;9.10;;;24.80;44.90;;;;;;5075365;28;20031;-48
2021/01/02 00:18:10;;;;;;;15.80;7.88;;;24.80;44.90;;;;;;5073949;28;20028;-48
2021/01/02 00:20:43;;;;;;;18.77;9.50;;;24.80;45.00;;;;;;5040098;28;20099;-48
2021/01/02 00:23:43;;;;;;;19.85;9.93;;;24.70;45.00;;;;;;5039689;28;20065;-48
2021/01/02 00:26:33;;;;;;;19.58;9.25;;;24.70;45.10;;;;;;5057036;28;20063;-48
2021/01/02 00:29:04;;;;;;;16.67;9.30;;;24.70;45.20;;;;;;5075133;28;20039;-48
2021/01/02 00:31:52;;;;;;;16.85;8.60;;;24.70;45.20;;;;;;5073492;28;20055;-48
2021/01/02 00:34:22;;;;;;;20.65;8.85;;;24.60;45.30;;;;;;5074250;28;20077;-48
2021/01/02 00:37:12;;;;;;;13.65;7.32;;;24.60;45.40;;;;;;5073013;28;20040;-48
2021/01/02 00:39:53;;;;;;;17.25;7.15;;;24.70;45.60;;;;;;5075251;28;20031;-48
2021/01/02 00:42:21;;;;;;;16.30;6.97;;;24.70;45.70;;;;;;5074582;28;20028;-48
2021/01/02 00:44:49;;;;;;;24.90;7.22;;;24.70;45.80;;;;;;5074041;28;20032;-48
2021/01/02 00:47:16;;;;;;;17.55;7.00;;;24.70;45.80;;;;;;5073930;28;20048;-48
2021/01/02 00:49:47;;;;;;;11.85;6.30;;;24.80;45.90;;;;;;5074137;28;20037;-48
2021/01/02 00:52:32;;;;;;;14.55;6.35;;;24.80;45.80;;;;;;5073976;28;20020;-48
2021/01/02 00:55:32;;;;;;;15.40;5.88;;;24.80;45.70;;;;;;5073483;28;20046;-48
2021/01/02 00:58:52;;;;;;;10.48;5.68;;;24.90;45.70;;;;;;5074061;28;20029;-48
2021/01/02 01:01:30;;;;;;;11.23;5.05;;;25.00;45.60;;;;;;5031054;28;20489;-49
2021/01/02 01:04:19;;;;;;;13.48;5.57;;;25.00;45.40;;;;;;5073741;28;20491;-48
2021/01/02 01:06:54;;;;;;;9.80;5.20;;;25.10;45.40;;;;;;5074832;28;20028;-48
2021/01/02 01:09:24;;;;;;;10.32;4.93;;;25.10;45.20;;;;;;5074276;28;20103;-49
2021/01/02 01:11:54;;;;;;;10.45;4.80;;;25.20;45.20;;;;;;5073175;28;20036;-48
2021/01/02 01:14:22;;;;;;;8.93;4.43;;;25.20;45.00;;;;;;5074710;28;20109;-49
2021/01/02 01:16:55;;;;;;;11.38;4.35;;;25.20;45.00;;;;;;5073799;28;20357;-49
2021/01/02 01:19:28;;;;;;;6.70;4.13;;;25.30;45.00;;;;;;5073778;28;20037;-48
2021/01/02 01:22:01;;;;;;;8.82;4.30;;;25.30;44.80;;;;;;5073916;28;20025;-48
2021/01/02 01:24:39;;;;;;;12.25;5.10;;;25.30;44.80;;;;;;5074145;28;20025;-48
2021/01/02 01:27:15;;;;;;;14.05;4.30;;;25.40;44.70;;;;;;5073732;28;20048;-49
2021/01/02 01:29:42;;;;;;;12.25;4.30;;;25.40;44.60;;;;;;5074238;28;20054;-48
2021/01/02 01:32:09;;;;;;;13.45;4.68;;;25.40;44.50;;;;;;5073159;28;20091;-48
2021/01/02 01:34:37;;;;;;;15.70;4.30;;;25.40;44.50;;;;;;5073236;28;20024;-48
2021/01/02 01:37:08;;;;;;;9.82;3.70;;;25.40;44.50;;;;;;5073170;28;20361;-48
2021/01/02 01:39:46;;;;;;;9.87;4.20;;;25.40;44.50;;;;;;5074232;28;20033;-48
2021/01/02 01:42:14;;;;;;;8.85;3.70;;;25.40;44.40;;;;;;5073391;28;20348;-48
2021/01/02 01:44:51;;;;;;;8.00;3.50;;;25.30;44.40;;;;;;5073578;28;20050;-48
2021/01/02 01:47:20;;;;;;;10.98;3.38;;;25.30;44.40;;;;;;5073057;28;20040;-48
2021/01/02 01:49:58;;;;;;;10.15;3.83;;;25.30;44.50;;;;;;5077548;28;20074;-48
2021/01/02 01:52:51;;;;;;;15.02;3.58;;;25.30;44.50;;;;;;5076923;28;20056;-48
2021/01/02 01:55:43;;;;;;;10.98;3.90;;;25.30;44.50;;;;;;5078369;28;20055;-47
2021/01/02 01:58:11;;;;;;;;;;;25.30;44.60;;;;;;5069972;28;20036;-48
2021/01/02 02:00:51;;;;;;;9.70;3.17;;;25.30;44.90;;;;;;5077562;28;19909;-48
2021/01/02 02:03:27;;;;;;;8.13;2.65;;;25.30;44.60;;;;;;5068173;28;20028;-48
2021/01/02 02:06:12;;;;;;;8.68;3.08;;;25.30;44.60;;;;;;5077597;28;20028;-47
2021/01/02 02:08:56;;;;;;;9.70;3.00;;;25.40;44.60;;;;;;5077305;28;20016;-48
2021/01/02 02:11:44;;;;;;;7.72;2.85;;;25.50;44.60;;;;;;5077390;28;20029;-48
2021/01/02 02:14:36;;;;;;;6.65;2.72;;;25.50;44.60;;;;;;5076881;28;20052;-48
2021/01/02 02:17:04;;;;;;;4.18;2.47;;;25.60;44.50;;;;;;5076419;28;20032;-48
2021/01/02 02:19:49;;;;;;;6.82;2.55;;;25.60;44.40;;;;;;5077014;28;20024;-48
2021/01/02 02:22:16;;;;;;;4.55;2.88;;;25.70;44.40;;;;;;5077306;28;20598;-48
2021/01/02 02:24:44;;;;;;;5.13;2.38;;;25.80;44.20;;;;;;5076590;28;20028;-48
2021/01/02 02:27:14;;;;;;;5.28;2.70;;;25.80;44.10;;;;;;5075881;28;20442;-48
2021/01/02 02:30:15;;;;;;;4.72;2.72;;;25.90;44.10;;;;;;5076798;28;20118;-47
2021/01/02 02:32:46;;;;;;;7.32;2.33;;;26.00;44.10;;;;;;5063817;28;20115;-48
2021/01/02 02:35:16;;;;;;;3.35;2.10;;;26.00;43.90;;;;;;5076831;28;20020;-48
2021/01/02 02:37:46;;;;;;;7.88;2.70;;;26.10;43.90;;;;;;5056869;28;20040;-47
2021/01/02 02:40:17;;;;;;;5.30;2.33;;;26.10;43.90;;;;;;5069940;28;20035;-48
2021/01/02 02:42:58;;;;;;;4.43;2.38;;;26.10;43.80;;;;;;5066307;28;20024;-48
2021/01/02 02:45:27;;;;;;;12.45;2.60;;;26.10;43.70;;;;;;5076138;28;20032;-48
2021/01/02 02:47:59;;;;;;;6.65;2.47;;;26.10;43.60;;;;;;5056535;28;20056;-48
2021/01/02 02:50:28;;;;;;;8.52;2.08;;;26.10;43.50;;;;;;5058633;28;20029;-48
2021/01/02 02:53:09;;;;;;;5.35;2.28;;;26.10;43.50;;;;;;5076278;28;20029;-47
2021/01/02 02:55:39;;;;;;;5.72;1.98;;;26.10;43.50;;;;;;5076558;28;20074;-48
2021/01/02 02:58:07;;;;;;;5.50;2.13;;;26.00;43.50;;;;;;5076347;28;20047;-48
2021/01/02 03:00:35;;;;;;;11.15;2.35;;;26.00;43.50;;;;;;5075384;28;20068;-48
2021/01/02 03:03:03;;;;;;;8.02;2.20;;;25.90;43.40;;;;;;5076008;28;20031;-48
2021/01/02 03:05:29;;;;;;;9.13;2.30;;;25.90;43.50;;;;;;5076210;28;20035;-49
2021/01/02 03:07:56;;;;;;;12.15;2.78;;;25.90;43.40;;;;;;5075888;28;20486;-48
2021/01/02 03:10:23;;;;;;;9.60;2.80;;;25.80;43.40;;;;;;5075747;28;20024;-48
2021/01/02 03:12:51;;;;;;;7.75;2.95;;;25.80;43.40;;;;;;5075805;28;20056;-48
2021/01/02 03:15:20;;;;;;;9.25;2.75;;;25.70;43.50;;;;;;5075531;28;20028;-48
2021/01/02 03:17:47;;;;;;;10.48;2.95;;;25.70;43.50;;;;;;5075569;28;20071;-47
2021/01/02 03:20:16;;;;;;;10.40;3.05;;;25.70;43.80;;;;;;5075547;28;20024;-47
2021/01/02 03:22:44;;;;;;;6.43;3.17;;;25.70;43.90;;;;;;5075633;28;20425;-48
2021/01/02 03:25:13;;;;;;;7.43;2.78;;;25.60;44.00;;;;;;5076075;28;20066;-48
2021/01/02 03:27:40;;;;;;;9.80;3.50;;;25.70;44.00;;;;;;5056380;28;20049;-48
2021/01/02 03:30:09;;;;;;;12.18;2.90;;;25.70;44.00;;;;;;5065385;28;20056;-48
2021/01/02 03:32:37;;;;;;;6.68;2.97;;;25.80;44.20;;;;;;5075554;28;20468;-47
2021/01/02 03:35:06;;;;;;;7.13;2.60;;;25.80;44.10;;;;;;5075103;28;20027;-47
2021/01/02 03:37:37;;;;;;;7.55;3.00;;;25.80;44.10;;;;;;5075458;28;20074;-47
2021/01/02 03:40:06;;;;;;;8.73;2.83;;;25.90;44.10;;;;;;5074937;28;20054;-47
2021/01/02 03:42:43;;;;;;;7.32;2.40;;;25.90;44.10;;;;;;5075541;28;20086;-48
2021/01/02 03:45:12;;;;;;;11.35;2.75;;;26.00;44.10;;;;;;5075177;28;20456;-47
2021/01/02 03:47:42;;;;;;;7.55;3.13;;;26.00;44.10;;;;;;5074964;28;20029;-48
2021/01/02 03:50:09;;;;;;;8.98;3.00;;;26.10;44.00;;;;;;5075318;28;20017;-48
2021/01/02 03:52:39;;;;;;;7.38;2.83;;;26.20;43.90;;;;;;5075045;28;20464;-48
2021/01/02 03:55:08;;;;;;;8.93;2.83;;;26.20;43.80;;;;;;5075807;28;20020;-47
2021/01/02 03:57:35;;;;;;;6.22;2.58;;;26.30;43.90;;;;;;5074823;28;20380;-48
2021/01/02 04:00:06;;;;;;;6.38;2.70;;;26.30;43.80;;;;;;5074831;28;20120;-48
2021/01/02 04:02:33;;;;;;;6.15;2.70;;;26.30;43.70;;;;;;5075081;28;20085;-47
2021/01/02 04:04:59;;;;;;;8.48;2.58;;;26.30;43.70;;;;;;5074761;28;20415;-48
2021/01/02 04:07:26;;;;;;;9.77;2.40;;;26.40;43.70;;;;;;5074867;28;20483;-48
2021/01/02 04:09:54;;;;;;;7.65;2.45;;;26.40;43.70;;;;;;5074507;28;20028;-49
2021/01/02 04:12:21;;;;;;;6.88;2.72;;;26.40;43.60;;;;;;5074049;28;20047;-49
2021/01/02 04:14:47;;;;;;;7.20;2.42;;;26.50;43.60;;;;;;5074610;28;20036;-49
2021/01/02 04:17:14;;;;;;;7.28;2.47;;;26.50;43.60;;;;;;5074159;28;20029;-49
2021/01/02 04:19:40;;;;;;;5.93;2.45;;;26.50;43.60;;;;;;5074726;28;20467;-48
2021/01/02 04:22:06;;;;;;;7.63;2.67;;;26.50;43.60;;;;;;5073996;28;20036;-48
2021/01/02 04:24:33;;;;;;;5.47;2.60;;;26.50;43.50;;;;;;5074393;28;20112;-47
2021/01/02 04:27:03;;;;;;;4.22;2.20;;;26.40;43.50;;;;;;5074736;28;20392;-48
2021/01/02 04:29:29;;;;;;;10.35;2.55;;;26.50;43.60;;;;;;5073272;28;20030;-48
2021/01/02 04:31:58;;;;;;;4.85;2.30;;;26.40;43.50;;;;;;5074049;28;20054;-48
2021/01/02 04:34:25;;;;;;;6.78;2.58;;;26.40;43.60;;;;;;5074537;28;20031;-48
2021/01/02 04:36:51;;;;;;;4.35;1.90;;;26.40;43.60;;;;;;5074040;28;20034;-48
2021/01/02 04:39:19;;;;;;;4.72;2.65;;;26.40;43.60;;;;;;5074417;28;20032;-48
2021/01/02 04:41:46;;;;;;;3.95;2.13;;;26.40;43.60;;;;;;5073819;28;20024;-48
2021/01/02 04:44:13;;;;;;;6.47;2.70;;;26.40;43.70;;;;;;5074173;28;20025;-48
2021/01/02 04:46:44;;;;;;;7.63;2.50;;;26.30;43.60;;;;;;5073960;28;20064;-48
2021/01/02 04:49:10;;;;;;;3.78;2.30;;;26.30;43.60;;;;;;5074408;28;20085;-48
2021/01/02 04:51:38;;;;;;;3.92;2.13;;;26.30;43.60;;;;;;5073896;28;20028;-48
2021/01/02 04:54:05;;;;;;;4.30;2.30;;;26.30;43.70;;;;;;5074153;28;20027;-49
2021/01/02 04:56:34;;;;;;;5.55;2.47;;;26.30;43.70;;;;;;5073820;28;20468;-48
2021/01/02 04:59:09;;;;;;;5.45;2.50;;;26.30;43.70;;;;;;5073623;28;20033;-48
2021/01/02 05:01:39;;;;;;;6.63;2.75;;;26.30;43.70;;;;;;5073691;28;20028;-48
2021/01/02 05:04:07;;;;;;;4.43;2.10;;;26.30;43.80;;;;;;5074087;28;20162;-48
2021/01/02 05:06:34;;;;;;;5.82;2.35;;;26.20;43.70;;;;;;5073777;28;20032;-48
2021/01/02 05:09:02;;;;;;;4.10;2.10;;;26.20;43.70;;;;;;5073734;28;20102;-47
2021/01/02 05:11:38;;;;;;;4.57;2.40;;;26.20;43.80;;;;;;5073862;28;20468;-48
2021/01/02 05:14:06;;;;;;;6.07;2.50;;;26.20;43.80;;;;;;5073990;28;20463;-49
2021/01/02 05:16:40;;;;;;;3.97;2.20;;;26.10;43.80;;;;;;5073865;28;20037;-48
2021/01/02 05:19:17;;;;;;;4.72;2.28;;;26.00;43.80;;;;;;5074138;28;20028;-48
2021/01/02 05:21:45;;;;;;;3.95;2.33;;;26.00;43.80;;;;;;5073976;28;20104;-48
2021/01/02 05:24:14;;;;;;;4.25;2.47;;;26.00;43.90;;;;;;5073435;28;20032;-48
2021/01/02 05:26:44;;;;;;;3.50;2.22;;;25.90;43.80;;;;;;5073437;28;20052;-48
2021/01/02 05:29:25;;;;;;;5.97;2.47;;;25.90;43.90;;;;;;5073834;28;20436;-48
2021/01/02 05:31:54;;;;;;;5.45;2.17;;;25.80;43.90;;;;;;5073548;28;20024;-48
2021/01/02 05:34:26;;;;;;;5.75;2.45;;;25.80;44.00;;;;;;5073695;28;20025;-49
2021/01/02 05:37:11;;;;;;;4.35;2.47;;;25.80;44.10;;;;;;5073438;28;20380;-47
2021/01/02 05:39:43;;;;;;;4.97;2.70;;;25.70;44.20;;;;;;5073411;28;20041;-48
2021/01/02 05:42:10;;;;;;;5.38;2.70;;;25.60;44.10;;;;;;5073674;28;20028;-48
2021/01/02 05:44:39;;;;;;;7.57;2.50;;;25.60;44.20;;;;;;5073279;28;20415;-47
2021/01/02 05:47:10;;;;;;;5.05;2.75;;;25.60;44.30;;;;;;5073422;28;20036;-47
2021/01/02 05:49:45;;;;;;;5.57;2.70;;;25.50;44.40;;;;;;5073716;28;20025;-47
2021/01/02 05:52:12;;;;;;;4.82;2.50;;;25.50;44.40;;;;;;5073179;28;20477;-47
2021/01/02 05:54:47;;;;;;;7.50;2.65;;;25.40;44.40;;;;;;5073255;28;20031;-48
2021/01/02 05:57:27;;;;;;;6.63;2.75;;;25.30;44.40;;;;;;5073453;28;20455;-48
2021/01/02 05:59:58;;;;;;;6.20;2.63;;;25.30;44.60;;;;;;5073615;28;20032;-48
2021/01/02 06:02:25;;;;;;;5.28;2.63;;;25.20;44.60;;;;;;5072707;28;20116;-48
2021/01/02 06:05:06;;;;;;;4.25;2.55;;;25.20;44.70;;;;;;5073557;28;20025;-49
2021/01/02 06:07:35;;;;;;;5.63;2.47;;;25.10;44.70;;;;;;5073297;28;20055;-48
2021/01/02 06:10:06;;;;;;;6.53;2.75;;;25.10;44.80;;;;;;5073084;28;20025;-49
2021/01/02 06:12:34;;;;;;;8.20;2.70;;;25.00;45.60;;;;;;5073441;28;20024;-49
2021/01/02 06:15:04;;;;;;;4.97;2.60;;;24.90;44.90;;;;;;5073081;28;20047;-49
2021/01/02 06:17:36;;;;;;;10.32;3.03;;;24.90;45.00;;;;;;5072617;28;20025;-48
2021/01/02 06:20:11;;;;;;;5.60;2.88;;;24.80;45.60;;;;;;5073598;28;20056;-48
2021/01/02 06:22:38;;;;;;;9.23;3.17;;;24.80;44.90;;;;;;5072986;28;20471;-48
2021/01/02 06:25:09;;;;;;;7.97;3.35;;;24.70;45.00;;;;;;5072862;28;20024;-48
2021/01/02 06:27:39;;;;;;;;;;;24.60;45.00;;;;;;5073615;28;20041;-48
2021/01/02 06:30:07;;;;;;;6.70;2.70;;;24.60;45.30;;;;;;5072540;28;20263;-48
2021/01/02 06:32:34;;;;;;;11.00;2.85;;;24.40;45.30;;;;;;5072834;28;20021;-49
2021/01/02 06:35:09;;;;;;;7.68;3.28;;;24.40;45.40;;;;;;5075605;28;20379;-49
2021/01/02 06:37:48;;;;;;;7.55;2.80;;;24.40;45.50;;;;;;5076727;28;20028;-48
2021/01/02 06:40:21;;;;;;;6.57;2.90;;;24.30;45.60;;;;;;5076496;28;20032;-48
2021/01/02 06:43:02;;;;;;;9.07;2.78;;;24.20;45.70;;;;;;5056963;28;20028;-49
2021/01/02 06:45:41;;;;;;;8.27;2.65;;;24.20;45.80;;;;;;5073218;28;20387;-48
2021/01/02 06:48:17;;;;;;;8.00;2.60;;;24.10;45.90;;;;;;5077158;28;20111;-48
2021/01/02 06:50:43;;;;;;;9.05;2.78;;;24.00;45.90;;;;;;5076799;28;20036;-48
2021/01/02 06:53:36;;;;;;;5.93;3.20;;;23.90;46.10;;;;;;5077056;28;20104;-48
2021/01/02 06:56:10;;;;;;;7.45;2.50;;;23.90;46.30;;;;;;5076628;28;20064;-48
2021/01/02 06:58:45;;;;;;;6.43;2.63;;;23.80;46.40;;;;;;5076222;28;20033;-50
2021/01/02 07:01:17;;;;;;;5.95;2.72;;;23.70;46.40;;;;;;5076909;28;20067;-49
2021/01/02 07:03:48;;;;;;;6.50;3.15;;;23.70;46.60;;;;;;5075591;28;20036;-49
2021/01/02 07:06:22;;;;;;;6.22;2.65;;;23.60;46.60;;;;;;5075694;28;20024;-49
2021/01/02 07:08:59;;;;;;;8.13;2.65;;;23.60;46.70;;;;;;5076346;28;20028;-48
2021/01/02 07:11:38;;;;;;;6.13;2.78;;;23.50;46.80;;;;;;5075946;28;20438;-48
2021/01/02 07:14:08;;;;;;;7.82;2.80;;;23.40;46.80;;;;;;5076109;28;20090;-48
2021/01/02 07:16:46;;;;;;;6.38;2.80;;;23.40;47.00;;;;;;5075689;28;20381;-48
2021/01/02 07:22:01;;;;;;;5.90;2.50;;;23.30;47.20;;;;;;5075652;28;20036;-49
2021/01/02 07:24:32;;;;;;;6.45;2.80;;;23.20;47.20;;;;;;5075250;28;20109;-49
2021/01/02 07:27:02;;;;;;;5.22;2.72;;;23.20;47.30;;;;;;5075435;28;20055;-48
2021/01/02 07:29:33;;;;;;;6.25;2.97;;;23.10;47.30;;;;;;5075645;28;20565;-47
2021/01/02 07:32:32;;;;;;;7.80;3.00;;;23.00;47.50;;;;;;5075559;28;20066;-49
2021/01/02 07:35:01;;;;;;;5.88;2.97;;;23.00;47.60;;;;;;5074721;28;20041;-48
2021/01/02 07:37:36;;;;;;;6.75;3.22;;;22.90;47.70;;;;;;5074323;28;20111;-48
2021/01/02 07:40:11;;;;;;;6.72;2.85;;;22.90;47.70;;;;;;5075418;28;20473;-48
2021/01/02 07:42:47;;;;;;;5.45;2.88;;;22.80;47.80;;;;;;5074932;28;20097;-48
2021/01/02 07:45:16;;;;;;;7.63;3.05;;;22.80;47.80;;;;;;5075185;28;20031;-48
2021/01/02 07:47:51;;;;;;;6.90;3.08;;;22.70;47.90;;;;;;5074493;28;20364;-47
2021/01/02 07:50:20;;;;;;;6.88;3.10;;;22.70;48.00;;;;;;5075673;28;20020;-48
2021/01/02 07:53:07;;;;;;;6.40;2.80;;;22.60;48.10;;;;;;5075017;28;20365;-48
2021/01/02 07:55:34;;;;;;;5.75;2.58;;;22.60;48.20;;;;;;5074123;28;20033;-49
2021/01/02 07:58:04;;;;;;;5.85;2.90;;;22.50;48.20;;;;;;5074451;28;20111;-48
2021/01/02 08:00:30;;;;;;;9.25;3.35;;;22.50;48.40;;;;;;5054941;28;20021;-49
2021/01/02 08:03:05;;;;;;;15.50;3.78;;;22.40;49.10;;;;;;5072741;28;20086;-49
2021/01/02 17:39:08;;;;;;;117.57;45.65;;;15.10;63.30;;;;;;5131720;27;20535;-45
2021/01/02 17:41:37;;;;;;;167.50;51.15;;;15.30;65.00;;;;;;5131980;28;20023;-45
2021/01/02 17:44:05;;;;;;;110.22;39.80;;;15.40;64.90;;;;;;5132594;28;20088;-45
2021/01/02 17:46:36;;;;;;;123.50;36.22;;;15.50;64.90;;;;;;5113600;28;20464;-47
2021/01/02 17:49:04;;;;;;;122.15;37.60;;;15.60;64.60;;;;;;5127393;28;20357;-46
2021/01/02 17:51:31;;;;;;;128.13;37.75;;;15.80;64.40;;;;;;5111305;28;20032;-46
2021/01/02 17:53:58;;;;;;;213.85;64.63;;;15.90;64.10;;;;;;5111184;28;20074;-46
2021/01/02 17:56:26;;;;;;;245.68;71.40;;;16.00;63.90;;;;;;5111137;28;20034;-45
2021/01/02 17:58:54;;;;;;;236.27;64.63;;;16.20;63.70;;;;;;5110827;28;20089;-45
2021/01/02 18:01:22;;;;;;;257.83;65.97;;;16.30;63.30;;;;;;5111098;28;20072;-46
2021/01/02 18:03:49;;;;;;;218.00;63.55;;;16.50;63.10;;;;;;5092571;28;20051;-46
2021/01/02 18:06:27;;;;;;;235.52;63.95;;;16.60;62.70;;;;;;5111174;28;20031;-46
2021/01/02 18:08:54;;;;;;;197.63;57.67;;;16.80;62.50;;;;;;5110266;28;20492;-45
2021/01/02 18:11:37;;;;;;;201.07;57.80;;;16.90;62.30;;;;;;5110819;28;20053;-46
2021/01/02 18:14:09;;;;;;;197.68;54.97;;;17.10;62.10;;;;;;5110769;28;20051;-46
2021/01/02 18:16:36;;;;;;;192.35;53.45;;;17.30;61.60;;;;;;5110859;28;20110;-46
2021/01/02 18:19:03;;;;;;;175.75;52.30;;;17.50;61.20;;;;;;5110894;28;20031;-46
2021/01/02 18:21:30;;;;;;;150.70;47.92;;;17.70;60.90;;;;;;5110687;28;20027;-46
2021/01/02 18:23:56;;;;;;;159.70;49.75;;;17.90;60.40;;;;;;5110911;28;20028;-46
2021/01/02 18:26:26;;;;;;;161.07;46.70;;;18.10;60.00;;;;;;5110424;28;20027;-47
2021/01/02 18:28:53;;;;;;;171.45;47.78;;;18.30;59.40;;;;;;5110796;28;20028;-47
2021/01/02 18:31:21;;;;;;;135.77;44.17;;;18.50;59.00;;;;;;5110427;28;20030;-47
2021/01/02 18:33:48;;;;;;;133.02;41.92;;;18.70;58.40;;;;;;5110009;28;20464;-46
2021/01/02 18:36:25;;;;;;;130.85;42.58;;;18.90;58.00;;;;;;5110353;28;20020;-47
2021/01/02 18:38:52;;;;;;;126.45;41.78;;;19.20;57.50;;;;;;5103416;28;20084;-46
2021/01/02 18:41:24;;;;;;;130.13;40.03;;;19.30;57.10;;;;;;5095975;28;20385;-46
2021/01/02 18:43:51;;;;;;;113.10;39.30;;;19.50;56.70;;;;;;5095702;28;20469;-46
2021/01/02 18:46:37;;;;;;;120.25;37.35;;;19.70;56.20;;;;;;5096247;28;20579;-46
2021/01/02 18:49:14;;;;;;;110.53;37.45;;;19.90;55.90;;;;;;5089790;28;20071;-47
2021/01/02 18:51:44;;;;;;;115.00;38.03;;;20.10;55.30;;;;;;5076176;28;20363;-47
2021/01/02 18:54:17;;;;;;;103.75;35.47;;;20.30;54.90;;;;;;5086620;28;20081;-46
2021/01/02 18:56:53;;;;;;;101.68;34.75;;;20.50;55.30;;;;;;5096726;28;20377;-46
2021/01/02 18:59:20;;;;;;;85.90;30.52;;;20.60;54.10;;;;;;5079569;28;20411;-46
2021/01/02 19:01:50;;;;;;;99.45;30.42;;;20.80;53.80;;;;;;5096254;28;20046;-46
2021/01/02 19:04:19;;;;;;;82.00;30.33;;;21.00;53.40;;;;;;5095911;28;20028;-46
2021/01/02 19:06:53;;;;;;;83.47;29.55;;;21.20;53.10;;;;;;5096241;28;20032;-46
2021/01/02 19:09:23;;;;;;;87.15;29.50;;;21.40;52.70;;;;;;5095954;28;20059;-46
2021/01/02 19:11:56;;;;;;;75.55;29.08;;;21.60;52.40;;;;;;5095967;28;20032;-46
2021/01/02 19:14:23;;;;;;;74.68;27.50;;;21.80;52.40;;;;;;5096028;28;20035;-46
2021/01/02 19:16:56;;;;;;;84.57;27.25;;;22.00;52.30;;;;;;5096054;28;20028;-46
2021/01/02 19:19:23;;;;;;;74.63;25.30;;;22.20;51.80;;;;;;5095997;28;20478;-46
2021/01/02 19:21:49;;;;;;;78.70;24.67;;;22.40;51.60;;;;;;5096291;28;20035;-47
2021/01/02 19:24:16;;;;;;;79.88;25.83;;;22.60;51.40;;;;;;5095561;28;20035;-47
2021/01/02 19:26:43;;;;;;;63.33;24.30;;;22.80;51.40;;;;;;5095746;28;20024;-46
2021/01/02 19:29:12;;;;;;;68.88;26.10;;;23.00;51.10;;;;;;5095847;28;20028;-47
2021/01/02 19:31:40;;;;;;;69.85;26.00;;;23.20;51.00;;;;;;5095767;28;20048;-47
2021/01/02 19:34:09;;;;;;;62.40;24.30;;;23.30;50.90;;;;;;5095610;28;20416;-46
2021/01/02 19:36:40;;;;;;;58.78;24.52;;;23.50;50.60;;;;;;5095172;28;20469;-46
2021/01/02 19:39:10;;;;;;;59.97;23.03;;;23.60;50.20;;;;;;5056070;28;20029;-46
2021/01/02 19:41:44;;;;;;;59.90;21.98;;;23.80;49.90;;;;;;5055390;28;20259;-45
2021/01/02 19:44:12;;;;;;;59.20;21.35;;;23.90;49.40;;;;;;5035182;28;20430;-48
2021/01/02 19:46:40;;;;;;;55.05;24.67;;;24.00;49.10;;;;;;5035170;28;20386;-47
2021/01/02 19:49:08;;;;;;;58.38;20.88;;;24.10;48.90;;;;;;5035386;28;20041;-47
2021/01/02 19:51:35;;;;;;;56.60;21.40;;;24.20;48.60;;;;;;5049657;28;20056;-47
2021/01/02 19:54:02;;;;;;;52.67;19.83;;;24.40;48.40;;;;;;5054513;28;20123;-47
2021/01/02 19:56:29;;;;;;;52.08;19.83;;;24.40;48.10;;;;;;5055293;28;20029;-46
2021/01/02 19:58:57;;;;;;;43.95;18.48;;;24.50;48.60;;;;;;5053307;28;20029;-46
2021/01/02 20:01:24;;;;;;;38.22;18.17;;;24.60;47.80;;;;;;5054546;28;20355;-47
2021/01/02 20:03:50;;;;;;;40.33;17.50;;;24.70;47.60;;;;;;5054829;28;20063;-46
2021/01/02 20:06:27;;;;;;;42.03;16.27;;;24.80;47.50;;;;;;5054928;28;20033;-46
2021/01/02 20:08:54;;;;;;;40.30;15.73;;;24.90;47.10;;;;;;5054644;28;20486;-45
2021/01/02 20:11:23;;;;;;;39.53;17.02;;;25.10;47.00;;;;;;5054864;28;20036;-45
2021/01/02 20:13:53;;;;;;;35.72;14.77;;;25.20;46.70;;;;;;5054655;28;20432;-46
2021/01/02 20:16:33;;;;;;;35.70;14.88;;;25.30;46.50;;;;;;5054524;28;20036;-46
2021/01/02 20:19:01;;;;;;;31.27;13.70;;;25.40;46.40;;;;;;5054897;28;20025;-46
2021/01/02 20:21:40;;;;;;;28.35;13.77;;;25.50;46.30;;;;;;5054191;28;20386;-46
2021/01/02 20:24:09;;;;;;;30.63;14.25;;;25.60;46.10;;;;;;5053986;28;20033;-46
2021/01/02 20:26:38;;;;;;;33.05;13.30;;;25.60;45.90;;;;;;5054769;28;20485;-46
2021/01/02 20:29:07;;;;;;;30.23;13.32;;;25.70;45.70;;;;;;5054477;28;20106;-46
2021/01/02 20:31:34;;;;;;;33.20;12.70;;;25.80;45.70;;;;;;5054352;28;20036;-46
2021/01/02 20:34:01;;;;;;;25.63;11.77;;;25.90;46.30;;;;;;5054120;28;20596;-47
2021/01/02 20:36:30;;;;;;;24.27;12.23;;;25.90;45.50;;;;;;5054168;28;20111;-47
2021/01/02 20:39:00;;;;;;;22.33;11.27;;;25.90;45.30;;;;;;5092440;28;20052;-47
2021/01/02 20:41:28;;;;;;;24.13;11.02;;;26.00;45.30;;;;;;5094437;28;20039;-47
2021/01/02 20:43:55;;;;;;;20.45;10.57;;;26.00;45.20;;;;;;5094137;28;20028;-47
2021/01/02 20:46:28;;;;;;;27.55;10.80;;;26.00;45.10;;;;;;5094366;28;20020;-47
2021/01/02 20:48:55;;;;;;;29.33;11.63;;;26.00;44.80;;;;;;5093862;28;20028;-47
2021/01/02 20:51:25;;;;;;;26.85;10.82;;;26.10;44.80;;;;;;5094306;28;20469;-47
2021/01/02 20:53:52;;;;;;;27.17;10.52;;;26.10;44.80;;;;;;5094323;28;20473;-47
2021/01/02 20:56:23;;;;;;;19.50;10.15;;;26.10;44.70;;;;;;5094140;28;20028;-47
2021/01/02 20:58:51;;;;;;;30.43;13.53;;;26.00;44.60;;;;;;5088738;28;20036;-46
2021/01/02 21:01:19;;;;;;;23.98;10.65;;;26.00;44.70;;;;;;5075499;28;20275;-46
2021/01/02 21:03:46;;;;;;;20.48;9.55;;;25.90;44.70;;;;;;5093338;28;20444;-46
2021/01/02 21:06:17;;;;;;;20.42;9.48;;;25.90;44.70;;;;;;5096342;28;20099;-47
2021/01/02 21:08:43;;;;;;;26.50;10.20;;;25.90;44.70;;;;;;5093411;28;20028;-46
2021/01/02 21:11:10;;;;;;;23.20;9.85;;;25.90;44.80;;;;;;5093955;28;20368;-46
2021/01/02 21:13:36;;;;;;;17.48;8.95;;;25.90;44.80;;;;;;5093544;28;20024;-46
2021/01/02 21:16:03;;;;;;;26.40;9.43;;;25.90;44.80;;;;;;5093582;28;20024;-46
2021/01/02 21:18:30;;;;;;;24.35;9.23;;;25.90;44.80;;;;;;5093902;28;20036;-46
2021/01/02 21:20:57;;;;;;;22.83;9.07;;;25.90;44.80;;;;;;5093813;28;20499;-46
2021/01/02 21:23:24;;;;;;;23.95;8.80;;;25.90;44.80;;;;;;5093790;28;20028;-46
2021/01/02 21:25:50;;;;;;;22.55;9.40;;;26.00;44.70;;;;;;5093845;28;20028;-47
2021/01/02 21:28:17;;;;;;;20.15;8.45;;;26.00;44.70;;;;;;5093570;28;20119;-46
2021/01/02 21:30:43;;;;;;;24.30;8.93;;;26.10;44.80;;;;;;5093787;28;20117;-47
2021/01/02 21:33:10;;;;;;;21.60;9.00;;;26.10;44.70;;;;;;5093674;28;20032;-46
2021/01/02 21:35:36;;;;;;;23.83;8.65;;;26.10;44.60;;;;;;5093787;28;20465;-46
2021/01/02 21:38:03;;;;;;;16.77;7.93;;;26.20;44.60;;;;;;5093755;28;20080;-46
2021/01/02 21:40:29;;;;;;;23.33;7.72;;;26.20;44.50;;;;;;5093950;28;20028;-46
2021/01/02 21:42:56;;;;;;;20.88;8.57;;;26.20;44.50;;;;;;5093186;28;20381;-46
2021/01/02 21:45:24;;;;;;;16.02;7.28;;;26.30;44.40;;;;;;5093679;28;20087;-46
2021/01/02 21:47:51;;;;;;;17.52;7.30;;;26.30;44.40;;;;;;5093592;28;20068;-47
2021/01/02 21:50:23;;;;;;;14.95;7.53;;;26.30;44.30;;;;;;5093428;28;20023;-47
2021/01/02 21:52:49;;;;;;;17.65;7.10;;;26.30;44.30;;;;;;5095463;28;20037;-46
2021/01/02 21:55:19;;;;;;;21.65;7.72;;;26.40;44.40;;;;;;5092604;28;20495;-46
2021/01/02 21:57:46;;;;;;;12.30;6.53;;;26.40;44.30;;;;;;5093329;28;20032;-46
2021/01/02 22:00:24;;;;;;;15.50;6.97;;;26.40;44.40;;;;;;5093476;28;20024;-46
2021/01/02 22:02:51;;;;;;;12.93;6.35;;;26.30;44.20;;;;;;5093634;28;20020;-47
2021/01/02 22:05:19;;;;;;;14.98;5.70;;;26.40;44.30;;;;;;5092729;28;20031;-46
2021/01/02 22:07:45;;;;;;;20.77;6.95;;;26.40;44.30;;;;;;5093425;28;20036;-46
2021/01/02 22:10:14;;;;;;;14.40;6.43;;;26.40;44.30;;;;;;5093469;28;20070;-46
2021/01/02 22:12:41;;;;;;;20.10;6.90;;;26.40;44.20;;;;;;5093714;28;20035;-48
2021/01/02 22:15:09;;;;;;;20.35;6.80;;;26.40;44.20;;;;;;5095462;28;20032;-47
2021/01/02 22:17:36;;;;;;;15.38;6.20;;;26.30;44.00;;;;;;5096636;28;20495;-47
2021/01/02 22:20:05;;;;;;;16.40;6.70;;;26.30;44.00;;;;;;5096924;28;20496;-47
2021/01/02 22:22:31;;;;;;;21.55;13.88;;;26.30;44.00;;;;;;5096646;28;20043;-47
2021/01/02 22:24:58;;;;;;;16.65;7.40;;;26.30;44.20;;;;;;5096761;28;20101;-47
2021/01/02 22:27:24;;;;;;;14.25;7.43;;;26.20;44.20;;;;;;5097168;28;20098;-47
2021/01/02 22:29:51;;;;;;;19.65;7.28;;;26.20;44.90;;;;;;5096697;28;20393;-47
2021/01/02 22:32:17;;;;;;;16.55;7.63;;;26.20;44.30;;;;;;5097555;28;20035;-47
2021/01/02 22:34:44;;;;;;;15.13;6.90;;;26.10;44.20;;;;;;5097129;28;20085;-47
2021/01/02 22:37:11;;;;;;;13.70;6.95;;;26.10;44.30;;;;;;5095378;28;20090;-47